Time;durP1;ratioP1;P1;durP2;ratioP2;P2;SDS_P1;SDS_P2;PMS_P1;PMS_P2;Temp;Humidity;BMP_temperature;BMP_pressure;BME280_temperature;BME280_humidity;BME280_pressure;Samples;Min_cycle;Max_cycle;Signal;HPM_P1;HPM_P2
2023/08/04 00:01:34;;;;;;;1.13;1.00;;;;;;;14.73;100.00;96787.19;5069789;28;20440;-70
2023/08/04 00:04:00;;;;;;;1.20;1.02;;;;;;;14.71;100.00;96788.28;5051977;28;20408;-70
2023/08/04 00:06:26;;;;;;;0.90;0.90;;;;;;;14.69;100.00;96792.31;5069871;28;20403;-70
2023/08/04 00:08:52;;;;;;;1.10;1.00;;;;;;;14.65;100.00;96789.44;5069707;28;20917;-70
2023/08/04 00:11:18;;;;;;;1.25;1.05;;;;;;;14.62;100.00;96789.22;5069755;28;20529;-70
2023/08/04 00:13:44;;;;;;;1.77;1.10;;;;;;;14.58;100.00;96788.22;5069869;28;20414;-70
2023/08/04 00:16:12;;;;;;;4.40;1.50;;;;;;;14.56;100.00;96790.38;5069868;28;20477;-70
2023/08/04 00:18:38;;;;;;;1.30;1.10;;;;;;;14.52;100.00;96787.50;5069682;28;20458;-70
2023/08/04 00:21:04;;;;;;;1.15;0.90;;;;;;;14.49;100.00;96797.97;5051816;28;20404;-70
2023/08/04 00:23:31;;;;;;;1.00;0.90;;;;;;;14.47;100.00;96797.44;5069752;28;20453;-70
2023/08/04 00:25:57;;;;;;;4.18;1.08;;;;;;;14.44;100.00;96796.16;5073344;28;20404;-70
2023/08/04 00:28:23;;;;;;;0.93;0.90;;;;;;;14.40;100.00;96797.81;5073273;28;20415;-70
2023/08/04 00:30:49;;;;;;;2.23;1.43;;;;;;;14.37;100.00;96800.22;5073545;28;20494;-69
2023/08/04 00:33:17;;;;;;;3.50;1.17;;;;;;;14.36;100.00;96793.34;5073348;28;20407;-70
2023/08/04 00:35:43;;;;;;;1.85;1.33;;;;;;;14.32;100.00;96799.25;5073442;28;20399;-70
2023/08/04 00:38:09;;;;;;;2.55;1.20;;;;;;;14.31;100.00;96802.97;5073213;28;20905;-70
2023/08/04 00:40:36;;;;;;;3.20;1.17;;;;;;;14.30;100.00;96803.25;5073273;28;20399;-70
2023/08/04 00:43:02;;;;;;;2.03;1.10;;;;;;;14.29;100.00;96807.00;5073299;28;20431;-70
2023/08/04 00:45:30;;;;;;;2.70;1.30;;;;;;;14.28;100.00;96800.13;5055300;28;20443;-70
2023/08/04 00:47:57;;;;;;;2.72;1.00;;;;;;;14.25;100.00;96796.16;5072989;28;20466;-70
2023/08/04 00:50:26;;;;;;;2.08;1.20;;;;;;;14.24;100.00;96799.09;5073098;28;20937;-70
2023/08/04 00:52:53;;;;;;;2.65;1.10;;;;;;;14.23;100.00;96797.50;5073043;28;20874;-70
2023/08/04 00:55:19;;;;;;;1.85;1.00;;;;;;;14.21;100.00;96802.31;5073003;28;20969;-70
2023/08/04 00:57:47;;;;;;;1.58;1.10;;;;;;;14.18;100.00;96806.38;5072955;28;20391;-70
2023/08/04 01:00:14;;;;;;;2.07;1.10;;;;;;;14.17;100.00;96807.44;5073138;28;20735;-70
2023/08/04 01:02:40;;;;;;;2.25;1.17;;;;;;;14.16;100.00;96810.38;5072723;28;20404;-70
2023/08/04 01:05:07;;;;;;;2.43;1.30;;;;;;;14.12;100.00;96814.72;5072874;28;20560;-70
2023/08/04 01:07:41;;;;;;;3.05;1.20;;;;;;;14.09;100.00;96816.06;5072634;28;20419;-70
2023/08/04 01:10:18;;;;;;;1.75;1.20;;;;;;;14.07;100.00;96814.75;5072960;28;20563;-70
2023/08/04 01:12:50;;;;;;;2.00;1.10;;;;;;;14.05;100.00;96817.72;5072641;28;20470;-70
2023/08/04 01:15:17;;;;;;;1.88;1.20;;;;;;;14.05;100.00;96816.94;5072761;28;20400;-70
2023/08/04 01:17:44;;;;;;;2.17;1.05;;;;;;;14.02;100.00;96804.97;5072579;28;20388;-70
2023/08/04 01:20:10;;;;;;;1.13;1.00;;;;;;;14.02;100.00;96812.19;5072761;28;20457;-70
2023/08/04 01:22:38;;;;;;;1.50;1.02;;;;;;;13.98;100.00;96804.00;5054476;28;20416;-70
2023/08/04 01:25:05;;;;;;;1.58;1.20;;;;;;;13.94;100.00;96806.41;5072332;28;20435;-70
2023/08/04 01:27:35;;;;;;;1.23;1.10;;;;;;;13.94;100.00;96809.06;5072239;28;20423;-70
2023/08/04 01:30:03;;;;;;;1.80;1.10;;;;;;;13.92;100.00;96805.09;5072466;28;20494;-70
2023/08/04 01:32:30;;;;;;;4.90;1.40;;;;;;;13.89;100.00;96797.72;5072217;28;20402;-70
2023/08/04 01:34:56;;;;;;;1.77;1.13;;;;;;;13.87;100.00;96798.00;5071897;28;20407;-70
2023/08/04 01:37:22;;;;;;;1.40;1.05;;;;;;;13.85;100.00;96799.34;5072090;28;20837;-70
2023/08/04 01:39:50;;;;;;;1.50;1.10;;;;;;;13.82;100.00;96795.41;5072298;28;20473;-70
2023/08/04 01:42:16;;;;;;;2.30;1.20;;;;;;;13.78;100.00;96799.69;5072027;28;20410;-70
2023/08/04 01:44:42;;;;;;;1.50;1.15;;;;;;;13.75;100.00;96788.84;5072147;28;20403;-70
2023/08/04 01:47:09;;;;;;;6.35;1.25;;;;;;;13.74;100.00;96788.06;5071814;28;20900;-70
2023/08/04 01:49:35;;;;;;;1.30;1.00;;;;;;;13.73;100.00;96791.00;5072063;28;20444;-70
2023/08/04 01:52:02;;;;;;;1.92;1.13;;;;;;;13.72;100.00;96784.09;5071954;28;20424;-70
2023/08/04 01:54:28;;;;;;;1.95;1.15;;;;;;;13.72;100.00;96781.44;5071954;28;20400;-70
2023/08/04 01:56:56;;;;;;;2.42;1.20;;;;;;;13.75;100.00;96783.53;5071192;28;20396;-70
2023/08/04 01:59:22;;;;;;;2.97;1.20;;;;;;;13.76;100.00;96780.56;5071779;28;20458;-70
2023/08/04 02:01:48;;;;;;;2.45;1.10;;;;;;;13.79;100.00;96788.00;5071786;28;20893;-70
2023/08/04 02:04:14;;;;;;;1.17;1.00;;;;;;;13.81;100.00;96787.72;5071800;28;20400;-70
2023/08/04 02:06:41;;;;;;;1.23;1.00;;;;;;;13.82;100.00;96790.09;5071689;28;20407;-70
2023/08/04 02:09:07;;;;;;;1.17;1.00;;;;;;;13.84;100.00;96792.44;5071503;28;20931;-70
2023/08/04 02:11:33;;;;;;;2.38;1.30;;;;;;;13.86;100.00;96788.44;5071517;28;20396;-70
2023/08/04 02:14:01;;;;;;;1.50;1.20;;;;;;;13.88;100.00;96788.94;5071556;28;20411;-70
2023/08/04 02:16:27;;;;;;;1.65;1.13;;;;;;;13.94;100.00;96795.78;5071607;28;20788;-70
2023/08/04 02:19:05;;;;;;;3.22;1.30;;;;;;;13.97;100.00;96786.44;5071364;28;20486;-70
2023/08/04 02:21:31;;;;;;;1.80;1.10;;;;;;;14.02;100.00;96786.34;5071307;28;20497;-70
2023/08/04 02:23:57;;;;;;;1.55;1.17;;;;;;;14.05;100.00;96785.78;5071233;28;20403;-70
2023/08/04 02:26:24;;;;;;;1.75;1.05;;;;;;;14.08;100.00;96781.75;5071349;28;20780;-70
2023/08/04 02:28:52;;;;;;;1.48;0.95;;;;;;;14.11;100.00;96789.97;5071029;28;20500;-70
2023/08/04 02:31:21;;;;;;;2.00;1.20;;;;;;;14.13;100.00;96790.47;5071377;28;20758;-70
2023/08/04 02:33:47;;;;;;;2.38;1.10;;;;;;;14.13;100.00;96790.47;5071138;28;20474;-70
2023/08/04 02:36:14;;;;;;;3.85;1.10;;;;;;;14.15;100.00;96793.63;5071106;28;20479;-70
2023/08/04 02:38:40;;;;;;;1.25;1.00;;;;;;;14.17;100.00;96791.47;5071008;28;20463;-70
2023/08/04 02:41:08;;;;;;;1.50;0.90;;;;;;;14.17;100.00;96798.66;5070945;28;20437;-70
2023/08/04 02:43:35;;;;;;;1.20;1.10;;;;;;;14.18;100.00;96798.38;5070872;28;20403;-70
2023/08/04 02:46:01;;;;;;;1.47;1.00;;;;;;;14.17;100.00;96790.69;5070822;28;20450;-70
2023/08/04 02:48:29;;;;;;;2.95;1.08;;;;;;;14.16;100.00;96792.53;5069944;28;20416;-70
2023/08/04 02:51:00;;;;;;;2.13;1.30;;;;;;;14.16;100.00;96792.53;5070760;28;21585;-70
2023/08/04 02:53:26;;;;;;;1.00;0.95;;;;;;;14.14;100.00;96786.72;5070751;28;20450;-70
2023/08/04 02:55:52;;;;;;;1.60;1.00;;;;;;;14.13;100.00;96795.81;5070751;28;20427;-70
2023/08/04 02:58:18;;;;;;;2.50;1.00;;;;;;;14.12;100.00;96791.56;5070596;28;20886;-70
2023/08/04 03:00:45;;;;;;;1.50;1.02;;;;;;;14.13;100.00;96787.81;5070753;28;20431;-70
2023/08/04 03:03:12;;;;;;;1.90;1.10;;;;;;;14.15;100.00;96787.50;5070618;28;20402;-70
2023/08/04 03:05:39;;;;;;;1.60;1.00;;;;;;;14.15;100.00;96795.50;5070604;28;20461;-70
2023/08/04 03:08:05;;;;;;;1.42;1.00;;;;;;;14.15;100.00;96790.97;5070413;28;20411;-70
2023/08/04 03:10:31;;;;;;;1.90;1.00;;;;;;;14.15;100.00;96798.16;5070549;28;20400;-70
2023/08/04 03:12:57;;;;;;;1.40;1.08;;;;;;;14.13;100.00;96797.66;5070523;28;20406;-70
2023/08/04 03:15:24;;;;;;;2.20;1.10;;;;;;;14.13;100.00;96792.34;5070559;28;20399;-70
2023/08/04 03:17:51;;;;;;;1.60;1.08;;;;;;;14.12;100.00;96793.41;5070315;28;20431;-70
2023/08/04 03:20:17;;;;;;;1.98;1.15;;;;;;;14.12;100.00;96799.53;5070490;28;20469;-70
2023/08/04 03:22:44;;;;;;;2.10;1.10;;;;;;;14.11;100.00;96792.63;5070328;28;20400;-70
2023/08/04 03:25:10;;;;;;;2.13;1.30;;;;;;;14.11;100.00;96795.28;5070402;28;20489;-70
2023/08/04 03:27:37;;;;;;;4.45;1.30;;;;;;;14.12;100.00;96796.88;5070199;28;21034;-70
2023/08/04 03:30:04;;;;;;;1.55;1.23;;;;;;;14.12;100.00;96801.41;5070526;28;20403;-70
2023/08/04 03:32:30;;;;;;;2.63;1.02;;;;;;;14.10;100.00;96801.69;5070091;28;20426;-70
2023/08/04 03:34:56;;;;;;;1.48;1.00;;;;;;;14.12;100.00;96798.75;5070482;28;21013;-70
2023/08/04 03:37:22;;;;;;;2.25;1.10;;;;;;;14.13;100.00;96798.47;5070041;28;20494;-70
2023/08/04 03:39:50;;;;;;;1.10;1.00;;;;;;;14.13;100.00;96798.47;5070261;28;20427;-70
2023/08/04 03:42:16;;;;;;;1.75;1.10;;;;;;;14.15;100.00;96792.81;5069991;28;20411;-70
2023/08/04 03:44:42;;;;;;;1.80;0.90;;;;;;;14.15;100.00;96787.50;5070225;28;20404;-70
2023/08/04 03:47:08;;;;;;;1.00;0.90;;;;;;;14.16;100.00;96787.22;5069964;28;20438;-70
2023/08/04 03:49:34;;;;;;;1.10;0.90;;;;;;;14.17;100.00;96796.00;5070072;28;20830;-70
2023/08/04 03:52:01;;;;;;;1.15;1.00;;;;;;;14.17;100.00;96791.47;5069982;28;20396;-70
2023/08/04 03:54:27;;;;;;;1.00;0.90;;;;;;;14.18;100.00;96793.06;5069773;28;20399;-70
2023/08/04 03:56:54;;;;;;;1.58;1.08;;;;;;;14.20;100.00;96801.56;5051960;28;20407;-70
2023/08/04 03:59:20;;;;;;;1.70;1.00;;;;;;;14.21;100.00;96797.78;5072935;28;20403;-70
2023/08/04 04:01:47;;;;;;;3.13;1.20;;;;;;;14.21;100.00;96797.78;5074149;28;20735;-70
2023/08/04 04:04:13;;;;;;;2.42;1.13;;;;;;;14.23;100.00;96798.28;5074194;28;20396;-70
2023/08/04 04:06:39;;;;;;;1.40;1.00;;;;;;;14.25;100.00;96793.47;5056114;28;20896;-70
2023/08/04 04:09:05;;;;;;;1.10;1.00;;;;;;;14.27;100.00;96796.66;5073853;28;20470;-70
2023/08/04 04:11:32;;;;;;;1.70;1.00;;;;;;;14.30;100.00;96797.94;5055825;28;20412;-70
2023/08/04 04:13:59;;;;;;;2.67;1.17;;;;;;;14.33;100.00;96789.38;5073888;28;20400;-70
2023/08/04 04:16:30;;;;;;;0.95;0.88;;;;;;;14.36;100.00;96790.69;5073720;28;20457;-70
2023/08/04 04:18:56;;;;;;;1.10;0.95;;;;;;;14.38;100.00;96788.50;5073672;28;20392;-70
2023/08/04 04:21:22;;;;;;;1.40;0.98;;;;;;;14.39;100.00;96790.13;5073463;28;20901;-70
2023/08/04 04:23:49;;;;;;;1.90;1.00;;;;;;;14.36;100.00;96788.78;5073545;28;20396;-70
2023/08/04 04:26:15;;;;;;;3.10;1.10;;;;;;;14.33;100.00;96792.03;5073496;28;20407;-70
2023/08/04 04:28:41;;;;;;;0.90;0.90;;;;;;;14.33;100.00;96797.38;5055373;28;20420;-70
2023/08/04 04:31:08;;;;;;;1.55;0.98;;;;;;;14.32;100.00;96798.44;5073367;28;20434;-70
2023/08/04 04:33:35;;;;;;;1.02;0.88;;;;;;;14.32;100.00;96799.25;5073529;28;20944;-70
2023/08/04 04:36:01;;;;;;;1.13;1.03;;;;;;;14.33;100.00;96798.16;5073398;28;20494;-70
2023/08/04 04:38:30;;;;;;;1.20;0.90;;;;;;;14.36;100.00;96804.75;5073212;28;20407;-70
2023/08/04 04:40:56;;;;;;;3.08;0.95;;;;;;;14.40;100.00;96803.16;5073153;28;20450;-70
2023/08/04 04:43:22;;;;;;;1.10;1.00;;;;;;;14.45;100.00;96807.59;5073284;28;20399;-70
2023/08/04 04:45:49;;;;;;;0.88;0.80;;;;;;;14.49;100.00;96812.06;5073261;28;20735;-70
2023/08/04 04:48:17;;;;;;;1.33;0.80;;;;;;;14.54;100.00;96819.19;5073038;28;20919;-70
2023/08/04 04:50:43;;;;;;;0.97;0.83;;;;;;;14.58;100.00;96818.31;5073210;28;20566;-70
2023/08/04 04:53:10;;;;;;;2.17;0.80;;;;;;;14.61;100.00;96807.06;5073334;28;20874;-70
2023/08/04 04:55:36;;;;;;;0.80;0.80;;;;;;;14.64;100.00;96819.81;5073025;28;20414;-70
2023/08/04 04:58:02;;;;;;;1.80;1.00;;;;;;;14.67;100.00;96827.22;5073001;28;20404;-70
2023/08/04 05:00:28;;;;;;;1.20;1.00;;;;;;;14.71;100.00;96817.59;5072962;28;20449;-70
2023/08/04 05:02:54;;;;;;;0.70;0.70;;;;;;;14.73;100.00;96826.06;5072955;28;20447;-70
2023/08/04 05:05:22;;;;;;;1.00;0.80;;;;;;;14.78;100.00;96827.84;5072897;28;20404;-70
2023/08/04 05:07:48;;;;;;;0.80;0.80;;;;;;;14.82;100.00;96826.19;5072795;28;20480;-70
2023/08/04 05:10:14;;;;;;;0.90;0.85;;;;;;;14.87;100.00;96828.00;5072097;28;20476;-70
2023/08/04 05:12:41;;;;;;;0.95;0.80;;;;;;;14.91;100.00;96832.44;5072721;28;20412;-70
2023/08/04 05:15:08;;;;;;;1.55;1.00;;;;;;;14.98;100.00;96829.38;5072731;28;20475;-70
2023/08/04 05:17:38;;;;;;;0.80;0.80;;;;;;;15.04;100.00;96831.66;5072478;28;20408;-70
2023/08/04 05:20:06;;;;;;;1.95;1.10;;;;;;;15.10;100.00;96832.41;5072712;28;20399;-70
2023/08/04 05:22:33;;;;;;;1.40;0.90;;;;;;;15.16;100.00;96830.44;5072754;28;20719;-70
2023/08/04 05:25:00;;;;;;;0.80;0.70;;;;;;;15.19;100.00;96835.16;5072459;28;20486;-70
2023/08/04 05:27:26;;;;;;;1.92;1.00;;;;;;;15.24;100.00;96832.41;5072098;28;20400;-70
2023/08/04 05:29:52;;;;;;;1.45;0.90;;;;;;;15.28;100.00;96828.06;5072476;28;20400;-70
2023/08/04 05:32:18;;;;;;;0.80;0.80;;;;;;;15.34;100.00;96832.22;5072283;28;20523;-70
2023/08/04 05:34:44;;;;;;;1.40;0.90;;;;;;;15.38;100.00;96826.00;5072383;28;20404;-70
2023/08/04 05:37:10;;;;;;;1.33;0.90;;;;;;;15.44;100.00;96838.16;5072156;28;20402;-70
2023/08/04 05:39:38;;;;;;;0.90;0.90;;;;;;;15.51;100.00;96837.78;5072171;28;20414;-70
2023/08/04 05:42:06;;;;;;;1.40;0.93;;;;;;;15.54;100.00;96841.75;5072268;28;20404;-70
2023/08/04 05:44:32;;;;;;;1.17;1.05;;;;;;;15.56;100.00;96836.94;5072158;28;20396;-71
2023/08/04 05:46:59;;;;;;;1.80;1.00;;;;;;;15.59;100.00;96849.66;5071976;28;20916;-70
2023/08/04 05:49:25;;;;;;;1.02;0.93;;;;;;;15.62;100.00;96847.22;5071953;28;20498;-70
2023/08/04 05:51:51;;;;;;;1.17;0.90;;;;;;;15.66;100.00;96850.06;5071967;28;20408;-70
2023/08/04 05:54:18;;;;;;;1.97;1.00;;;;;;;15.69;100.00;96849.47;5071981;28;20749;-70
2023/08/04 05:56:45;;;;;;;1.92;1.08;;;;;;;15.72;100.00;96839.00;5071839;28;20406;-70
2023/08/04 05:59:11;;;;;;;3.90;1.00;;;;;;;15.77;100.00;96844.25;5071944;28;20408;-70
2023/08/04 06:01:37;;;;;;;1.23;1.00;;;;;;;15.78;100.00;96848.50;5071780;28;20403;-70
2023/08/04 06:04:04;;;;;;;1.35;1.05;;;;;;;15.83;100.00;96852.94;5071827;28;20407;-70
2023/08/04 06:06:30;;;;;;;2.13;1.23;;;;;;;15.87;100.00;96852.03;5071684;28;20521;-70
2023/08/04 06:08:56;;;;;;;1.58;0.90;;;;;;;15.93;100.00;96846.63;5071476;28;20423;-70
2023/08/04 06:11:22;;;;;;;0.82;0.77;;;;;;;15.98;100.00;96843.81;5071389;28;20395;-70
2023/08/04 06:13:50;;;;;;;1.35;0.95;;;;;;;16.02;100.00;96847.47;5071571;28;20396;-70
2023/08/04 06:16:16;;;;;;;2.13;0.97;;;;;;;16.07;100.00;96858.06;5071490;28;20396;-70
2023/08/04 06:18:43;;;;;;;0.80;0.70;;;;;;;16.10;100.00;96852.91;5071362;28;20414;-70
2023/08/04 06:21:09;;;;;;;0.80;0.80;;;;;;;16.15;100.00;96855.47;5071318;28;20833;-70
2023/08/04 06:23:36;;;;;;;1.80;1.03;;;;;;;16.18;100.00;96852.19;5071402;28;20555;-70
2023/08/04 06:26:02;;;;;;;1.30;0.90;;;;;;;16.23;100.00;96859.31;5071262;28;20882;-70
2023/08/04 06:28:28;;;;;;;1.02;0.90;;;;;;;16.26;100.00;96861.38;5071029;28;20411;-70
2023/08/04 06:30:56;;;;;;;1.00;0.88;;;;;;;16.31;100.00;96855.94;5071180;28;20506;-70
2023/08/04 06:33:22;;;;;;;0.80;0.80;;;;;;;16.36;100.00;96855.81;5071159;28;20403;-70
2023/08/04 06:35:48;;;;;;;1.20;0.80;;;;;;;16.44;100.00;96865.81;5053168;28;20454;-70
2023/08/04 06:38:14;;;;;;;0.80;0.70;;;;;;;16.50;100.00;96864.59;5070901;28;20396;-70
2023/08/04 06:40:40;;;;;;;0.70;0.70;;;;;;;16.56;100.00;96866.06;5071013;28;20457;-70
2023/08/04 06:43:07;;;;;;;0.93;0.77;;;;;;;16.63;100.00;96863.00;5070909;28;20392;-71
2023/08/04 06:45:33;;;;;;;0.70;0.70;;;;;;;16.68;100.00;96865.56;5071225;28;20836;-70
2023/08/04 06:48:00;;;;;;;0.70;0.70;;;;;;;16.74;100.00;96866.22;5070764;28;20419;-70
2023/08/04 06:50:26;;;;;;;1.02;0.75;;;;;;;16.80;100.00;96865.81;5070882;28;20403;-70
2023/08/04 06:52:52;;;;;;;0.90;0.70;;;;;;;16.86;100.00;96871.81;5070758;28;20408;-70
2023/08/04 06:55:19;;;;;;;0.85;0.70;;;;;;;16.91;100.00;96869.84;5070864;28;20891;-70
2023/08/04 06:57:45;;;;;;;1.00;0.88;;;;;;;16.99;100.00;96870.97;5070687;28;20461;-70
2023/08/04 07:00:12;;;;;;;1.35;1.13;;;;;;;17.03;100.00;96874.63;5070878;28;20487;-71
2023/08/04 07:02:38;;;;;;;1.10;0.75;;;;;;;17.05;100.00;96875.13;5070635;28;20912;-71
2023/08/04 07:05:06;;;;;;;1.10;0.90;;;;;;;17.09;100.00;96877.94;5070770;28;20816;-71
2023/08/04 07:07:32;;;;;;;1.00;0.90;;;;;;;17.15;100.00;96882.06;5070555;28;20399;-71
2023/08/04 07:09:59;;;;;;;0.70;0.70;;;;;;;17.19;100.00;96883.84;5070639;28;20413;-71
2023/08/04 07:12:25;;;;;;;0.70;0.70;;;;;;;17.25;100.00;96879.16;5070459;28;20483;-71
2023/08/04 07:14:51;;;;;;;0.70;0.70;;;;;;;17.30;100.00;96879.81;5070554;28;20396;-71
2023/08/04 07:17:17;;;;;;;2.20;0.80;;;;;;;17.36;100.00;96877.81;5070400;28;20412;-71
2023/08/04 07:19:46;;;;;;;0.80;0.80;;;;;;;17.39;100.00;96879.88;5070654;28;20936;-71
2023/08/04 07:22:13;;;;;;;1.65;0.70;;;;;;;17.43;100.00;96878.19;5070441;28;20398;-71
2023/08/04 07:24:39;;;;;;;0.80;0.80;;;;;;;17.48;100.00;96886.06;5070282;28;20403;-71
2023/08/04 07:27:06;;;;;;;1.63;0.70;;;;;;;17.58;100.00;96882.34;5070362;28;20457;-71
2023/08/04 07:29:34;;;;;;;2.95;0.80;;;;;;;17.70;100.00;96885.25;5070255;28;20415;-71
2023/08/04 07:32:00;;;;;;;1.33;0.90;;;;;;;17.77;100.00;96883.69;5070466;28;20414;-71
2023/08/04 07:34:27;;;;;;;0.60;0.60;;;;;;;17.85;100.00;96887.50;5051880;28;20415;-71
2023/08/04 07:36:53;;;;;;;0.60;0.60;;;;;;;17.93;100.00;96894.00;5070105;28;20431;-71
2023/08/04 07:39:20;;;;;;;1.00;0.80;;;;;;;17.97;100.00;96894.94;5070242;28;20547;-71
2023/08/04 07:41:47;;;;;;;1.20;0.80;;;;;;;18.02;100.00;96895.63;5070130;28;20400;-71
2023/08/04 07:44:13;;;;;;;2.40;0.75;;;;;;;18.10;100.00;96900.22;5070180;28;20804;-71
2023/08/04 07:46:40;;;;;;;0.77;0.70;;;;;;;18.18;100.00;96896.78;5070249;28;20418;-71
2023/08/04 07:49:06;;;;;;;0.82;0.70;;;;;;;18.25;100.00;96893.63;5069881;28;20412;-70
2023/08/04 07:51:32;;;;;;;0.75;0.70;;;;;;;18.33;100.00;96908.94;5069996;28;20470;-70
2023/08/04 07:53:58;;;;;;;0.90;0.70;;;;;;;18.40;100.00;96911.16;5070211;28;20408;-70
2023/08/04 07:56:34;;;;;;;3.13;1.07;;;;;;;18.48;100.00;96900.44;5106752;22;20460;-74
2023/08/04 07:59:00;;;;;;;1.83;1.00;;;;;;;18.59;100.00;96902.84;5110241;28;20749;-74
2023/08/04 08:01:26;;;;;;;1.40;0.80;;;;;;;18.64;100.00;96900.03;5107442;28;20400;-74
2023/08/04 08:03:53;;;;;;;1.48;0.80;;;;;;;18.68;100.00;96903.66;5110535;28;20396;-74
2023/08/04 08:06:19;;;;;;;1.13;0.87;;;;;;;18.70;100.00;96904.13;5109239;28;20469;-74
2023/08/04 08:08:46;;;;;;;1.10;0.82;;;;;;;18.66;100.00;96903.94;5110274;28;20439;-74
2023/08/04 08:11:12;;;;;;;0.90;0.70;;;;;;;18.63;100.00;96903.81;5110437;28;20929;-74
2023/08/04 08:13:40;;;;;;;1.33;0.82;;;;;;;18.63;100.00;96907.28;5110363;28;20401;-74
2023/08/04 08:16:07;;;;;;;1.42;0.98;;;;;;;18.65;100.00;96905.06;5110370;28;20405;-74
2023/08/04 08:18:34;;;;;;;0.85;0.70;;;;;;;18.69;100.00;96897.97;5109875;28;20400;-74
2023/08/04 08:21:00;;;;;;;0.70;0.70;;;;;;;18.70;100.00;96896.88;5110267;28;20882;-74
2023/08/04 08:23:26;;;;;;;0.70;0.60;;;;;;;18.71;100.00;96890.41;5117442;28;20402;-74
2023/08/04 08:25:52;;;;;;;0.80;0.65;;;;;;;18.71;100.00;96886.94;5110403;28;20487;-74
2023/08/04 08:28:18;;;;;;;2.30;0.75;;;;;;;18.71;100.00;96885.06;5109994;28;20473;-74
2023/08/04 08:30:46;;;;;;;1.55;0.80;;;;;;;18.74;100.00;96884.41;5110248;28;20900;-74
2023/08/04 08:33:12;;;;;;;1.33;0.90;;;;;;;18.82;100.00;96885.50;5110335;28;20962;-74
2023/08/04 08:35:38;;;;;;;1.30;0.80;;;;;;;18.90;100.00;96879.34;5110337;28;20466;-74
2023/08/04 08:38:04;;;;;;;1.98;0.90;;;;;;;19.02;100.00;96890.22;5110152;28;20400;-74
2023/08/04 08:40:31;;;;;;;2.50;1.15;;;;;;;19.17;100.00;96888.97;5118746;28;20458;-74
2023/08/04 08:42:58;;;;;;;1.80;1.13;;;;;;;19.34;100.00;96887.03;5110145;28;20407;-74
2023/08/04 08:45:28;;;;;;;1.13;0.90;;;;;;;19.57;100.00;96884.16;5112591;27;20821;-74
2023/08/04 08:47:56;;;;;;;0.90;0.70;;;;;;;19.73;100.00;96893.25;5134417;27;20399;-74
2023/08/04 08:50:24;;;;;;;2.42;0.80;;;;;;;19.90;100.00;96884.34;5134492;27;20395;-74
2023/08/04 08:52:57;;;;;;;1.55;0.60;;;;;;;20.10;100.00;96889.78;5129434;27;20454;-74
2023/08/04 08:55:24;;;;;;;0.90;0.82;;;;;;;20.21;100.00;96894.78;5132016;27;20422;-74
2023/08/04 08:57:51;;;;;;;1.25;0.90;;;;;;;20.19;100.00;96900.50;5134209;27;20751;-74
2023/08/04 09:00:18;;;;;;;1.48;0.80;;;;;;;20.08;100.00;96905.44;5134349;27;20480;-74
2023/08/04 09:02:44;;;;;;;1.92;0.90;;;;;;;19.96;100.00;96891.91;5134238;27;20391;-74
2023/08/04 09:05:12;;;;;;;1.30;0.80;;;;;;;19.88;100.00;96905.38;5134315;27;20395;-74
2023/08/04 09:07:38;;;;;;;2.30;0.95;;;;;;;19.80;100.00;96898.91;5134084;27;20455;-74
2023/08/04 09:10:08;;;;;;;1.37;0.87;;;;;;;19.75;100.00;96901.78;5133988;27;20497;-74
2023/08/04 09:12:35;;;;;;;0.85;0.70;;;;;;;19.69;100.00;96895.81;5133903;27;20387;-74
2023/08/04 09:15:03;;;;;;;0.73;0.60;;;;;;;19.60;100.00;96897.75;5134027;27;20455;-74
2023/08/04 09:17:31;;;;;;;1.20;0.70;;;;;;;19.49;100.00;96893.81;5133738;27;20395;-74
2023/08/04 09:19:58;;;;;;;0.73;0.73;;;;;;;19.39;100.00;96888.75;5133992;27;20391;-74
2023/08/04 09:22:26;;;;;;;1.60;0.80;;;;;;;19.28;100.00;96895.56;5133775;27;20489;-74
2023/08/04 09:24:57;;;;;;;0.63;0.63;;;;;;;19.20;100.00;96893.69;5133700;27;20470;-74
2023/08/04 09:27:28;;;;;;;1.42;0.90;;;;;;;19.13;100.00;96894.16;5133596;27;20394;-74
2023/08/04 09:29:57;;;;;;;1.40;0.90;;;;;;;19.09;100.00;96890.56;5133636;27;20443;-74
2023/08/04 09:32:23;;;;;;;1.52;0.90;;;;;;;19.10;100.00;96899.38;5133436;27;20403;-74
2023/08/04 09:34:59;;;;;;;1.63;1.10;;;;;;;19.09;100.00;96905.88;5133595;27;20461;-74
2023/08/04 09:37:27;;;;;;;1.50;0.80;;;;;;;19.04;100.00;96896.06;5133394;27;20414;-74
2023/08/04 09:39:53;;;;;;;1.60;0.88;;;;;;;18.98;100.00;96896.53;5133517;27;20391;-74
2023/08/04 09:42:21;;;;;;;3.33;0.98;;;;;;;18.88;100.00;96900.31;5132372;27;20752;-74
2023/08/04 09:44:51;;;;;;;1.42;0.90;;;;;;;18.79;100.00;96897.66;5133428;27;20422;-74
2023/08/04 09:47:17;;;;;;;1.40;0.80;;;;;;;18.71;100.00;96898.47;5131923;27;20441;-73
2023/08/04 09:49:43;;;;;;;1.33;0.93;;;;;;;18.66;100.00;96897.78;5133302;27;20436;-73
2023/08/04 09:52:09;;;;;;;1.63;0.80;;;;;;;18.58;100.00;96887.84;5133120;27;20815;-73
2023/08/04 09:54:37;;;;;;;2.03;0.98;;;;;;;18.51;100.00;96899.00;5133259;27;20425;-73
2023/08/04 09:57:03;;;;;;;2.25;1.05;;;;;;;18.44;100.00;96893.34;5132717;27;20406;-73
2023/08/04 09:59:30;;;;;;;2.22;0.90;;;;;;;18.37;100.00;96896.47;5133136;27;20745;-73
2023/08/04 10:01:57;;;;;;;1.80;0.95;;;;;;;18.33;100.00;96898.22;5132991;27;20444;-74
2023/08/04 10:04:24;;;;;;;2.20;0.85;;;;;;;18.29;100.00;96891.88;5132896;27;20478;-73
2023/08/04 10:06:53;;;;;;;1.97;1.00;;;;;;;18.26;100.00;96889.06;5132675;27;20395;-73
2023/08/04 10:09:19;;;;;;;1.60;0.88;;;;;;;18.24;100.00;96889.38;5132617;27;20441;-73
2023/08/04 10:11:47;;;;;;;1.02;0.90;;;;;;;18.25;100.00;96895.50;5132752;27;20764;-73
2023/08/04 10:14:14;;;;;;;2.33;1.07;;;;;;;18.26;100.00;96902.47;5132750;27;20794;-73
2023/08/04 10:16:41;;;;;;;3.23;1.13;;;;;;;18.21;100.00;96908.72;5132702;27;20418;-73
2023/08/04 10:19:07;;;;;;;1.60;0.95;;;;;;;18.15;100.00;96908.09;5132474;27;20393;-72
2023/08/04 10:21:36;;;;;;;3.50;1.20;;;;;;;18.11;100.00;96907.16;5132542;27;20429;-72
2023/08/04 10:24:03;;;;;;;1.25;0.88;;;;;;;18.11;100.00;96907.16;5132470;27;20548;-74
2023/08/04 10:26:32;;;;;;;3.08;1.33;;;;;;;18.11;100.00;96909.81;5132429;27;20399;-72
2023/08/04 10:29:08;;;;;;;1.10;0.82;;;;;;;18.11;100.00;96901.00;5132419;27;20425;-72
2023/08/04 10:31:45;;;;;;;2.05;0.98;;;;;;;18.17;100.00;96908.59;5132288;27;20393;-72
2023/08/04 10:34:25;;;;;;;3.70;1.20;;;;;;;18.26;100.00;96905.13;5132520;27;20383;-72
2023/08/04 10:37:14;;;;;;;1.50;0.77;;;;;;;18.49;100.00;96906.59;5132218;27;20486;-72
2023/08/04 10:39:42;;;;;;;3.20;1.10;;;;;;;18.76;100.00;96906.34;5132411;27;20383;-72
2023/08/04 10:42:15;;;;;;;1.38;0.88;;;;;;;19.08;100.00;96902.38;5132187;27;20759;-72
2023/08/04 10:44:50;;;;;;;1.75;0.90;;;;;;;19.34;100.00;96900.44;5132313;27;20538;-74
2023/08/04 10:47:33;;;;;;;2.10;1.08;;;;;;;19.69;100.00;96914.63;5132003;27;20958;-72
2023/08/04 10:50:01;;;;;;;3.50;1.33;;;;;;;19.84;100.00;96918.66;5132716;27;20409;-73
2023/08/04 10:52:27;;;;;;;2.05;0.93;;;;;;;19.84;100.00;96915.19;5132074;27;20395;-72
2023/08/04 10:54:54;;;;;;;1.27;0.90;;;;;;;19.76;100.00;96918.69;5132919;27;20398;-74
2023/08/04 10:57:21;;;;;;;3.75;1.23;;;;;;;19.65;100.00;96926.28;5131739;27;20477;-73
2023/08/04 10:59:49;;;;;;;1.70;0.90;;;;;;;19.51;100.00;96928.38;5131952;27;20891;-75
2023/08/04 11:02:17;;;;;;;1.90;1.17;;;;;;;19.41;100.00;96934.06;5131791;27;20871;-73
2023/08/04 11:04:45;;;;;;;3.17;1.00;;;;;;;19.37;100.00;96933.91;5131855;27;20403;-73
2023/08/04 11:07:11;;;;;;;1.10;0.82;;;;;;;19.38;100.00;96932.81;5131478;27;20394;-73
2023/08/04 11:09:38;;;;;;;1.03;0.90;;;;;;;19.44;100.00;96933.44;5131341;27;20501;-73
2023/08/04 11:12:06;;;;;;;2.40;0.90;;;;;;;19.49;100.00;96928.69;5131733;27;20399;-73
2023/08/04 11:14:33;;;;;;;1.95;0.90;;;;;;;19.57;100.00;96932.47;5131603;27;20917;-73
2023/08/04 11:17:01;;;;;;;3.67;0.80;;;;;;;19.64;100.00;96930.09;5131546;27;20464;-73
2023/08/04 11:19:29;;;;;;;1.48;0.80;;;;;;;19.75;100.00;96939.41;5131734;27;20939;-73
2023/08/04 11:21:55;;;;;;;1.10;0.77;;;;;;;19.87;100.00;96941.41;5131713;27;20446;-73
2023/08/04 11:24:23;;;;;;;1.85;0.80;;;;;;;19.93;100.00;96940.09;5131541;27;20481;-73